sensor_id;sensor_type;location;lat;lon;timestamp;P1;durP1;ratioP1;P2;durP2;ratioP2
68825;SDS011;55841;53.392;10.086;2022-10-31T00:00:40;20.63;;;8.35;;
68825;SDS011;55841;53.392;10.086;2022-10-31T00:05:31;17.95;;;7.82;;
68825;SDS011;55841;53.392;10.086;2022-10-31T00:07:56;18.00;;;7.75;;
68825;SDS011;55841;53.392;10.086;2022-10-31T00:10:22;18.75;;;7.97;;
68825;SDS011;55841;53.392;10.086;2022-10-31T00:12:47;18.10;;;7.82;;
68825;SDS011;55841;53.392;10.086;2022-10-31T00:15:13;16.30;;;7.53;;
68825;SDS011;55841;53.392;10.086;2022-10-31T00:17:38;19.98;;;6.88;;
68825;SDS011;55841;53.392;10.086;2022-10-31T00:20:04;19.35;;;7.13;;
68825;SDS011;55841;53.392;10.086;2022-10-31T00:22:30;19.85;;;6.93;;
68825;SDS011;55841;53.392;10.086;2022-10-31T00:24:55;16.42;;;7.30;;
68825;SDS011;55841;53.392;10.086;2022-10-31T00:27:21;22.88;;;8.10;;
68825;SDS011;55841;53.392;10.086;2022-10-31T00:29:46;18.55;;;7.07;;
68825;SDS011;55841;53.392;10.086;2022-10-31T00:32:12;21.00;;;7.60;;
68825;SDS011;55841;53.392;10.086;2022-10-31T00:34:37;15.45;;;7.07;;
68825;SDS011;55841;53.392;10.086;2022-10-31T00:37:03;17.63;;;8.40;;
68825;SDS011;55841;53.392;10.086;2022-10-31T00:39:28;23.23;;;8.00;;
68825;SDS011;55841;53.392;10.086;2022-10-31T00:41:54;21.83;;;8.43;;
68825;SDS011;55841;53.392;10.086;2022-10-31T00:44:19;20.85;;;8.35;;
68825;SDS011;55841;53.392;10.086;2022-10-31T00:46:45;20.42;;;9.20;;
68825;SDS011;55841;53.392;10.086;2022-10-31T00:49:10;19.00;;;8.93;;
68825;SDS011;55841;53.392;10.086;2022-10-31T00:51:36;21.05;;;8.70;;
68825;SDS011;55841;53.392;10.086;2022-10-31T00:54:01;24.08;;;9.65;;
68825;SDS011;55841;53.392;10.086;2022-10-31T00:56:27;22.45;;;9.82;;
68825;SDS011;55841;53.392;10.086;2022-10-31T00:58:53;20.88;;;9.82;;
68825;SDS011;55841;53.392;10.086;2022-10-31T01:01:18;19.52;;;8.88;;
68825;SDS011;55841;53.392;10.086;2022-10-31T01:03:43;23.30;;;9.40;;
68825;SDS011;55841;53.392;10.086;2022-10-31T01:06:10;22.60;;;9.50;;
68825;SDS011;55841;53.392;10.086;2022-10-31T01:08:38;20.27;;;9.02;;
68825;SDS011;55841;53.392;10.086;2022-10-31T01:11:08;23.83;;;10.00;;
68825;SDS011;55841;53.392;10.086;2022-10-31T01:13:37;21.55;;;9.75;;
68825;SDS011;55841;53.392;10.086;2022-10-31T01:16:03;22.85;;;10.35;;
68825;SDS011;55841;53.392;10.086;2022-10-31T01:18:30;26.77;;;9.70;;
68825;SDS011;55841;53.392;10.086;2022-10-31T01:21:09;25.35;;;10.25;;
68825;SDS011;55841;53.392;10.086;2022-10-31T01:23:37;23.35;;;9.82;;
68825;SDS011;55841;53.392;10.086;2022-10-31T01:26:04;20.73;;;9.82;;
68825;SDS011;55841;53.392;10.086;2022-10-31T01:28:58;25.95;;;9.85;;
68825;SDS011;55841;53.392;10.086;2022-10-31T01:31:32;22.90;;;9.65;;
68825;SDS011;55841;53.392;10.086;2022-10-31T01:33:59;26.95;;;10.60;;
68825;SDS011;55841;53.392;10.086;2022-10-31T01:36:29;24.58;;;10.40;;
68825;SDS011;55841;53.392;10.086;2022-10-31T01:38:57;25.83;;;10.75;;
68825;SDS011;55841;53.392;10.086;2022-10-31T01:41:26;25.58;;;10.95;;
68825;SDS011;55841;53.392;10.086;2022-10-31T01:46:41;24.85;;;10.45;;
68825;SDS011;55841;53.392;10.086;2022-10-31T01:52:11;24.85;;;11.13;;
68825;SDS011;55841;53.392;10.086;2022-10-31T01:54:41;26.58;;;11.88;;
68825;SDS011;55841;53.392;10.086;2022-10-31T01:57:11;25.27;;;11.55;;
68825;SDS011;55841;53.392;10.086;2022-10-31T01:59:40;26.20;;;11.23;;
68825;SDS011;55841;53.392;10.086;2022-10-31T02:02:10;26.92;;;11.20;;
68825;SDS011;55841;53.392;10.086;2022-10-31T02:04:37;22.33;;;11.27;;
68825;SDS011;55841;53.392;10.086;2022-10-31T02:07:25;24.65;;;11.85;;
68825;SDS011;55841;53.392;10.086;2022-10-31T02:09:56;26.10;;;11.50;;
68825;SDS011;55841;53.392;10.086;2022-10-31T02:12:23;25.73;;;11.25;;
68825;SDS011;55841;53.392;10.086;2022-10-31T02:14:50;26.60;;;11.35;;
68825;SDS011;55841;53.392;10.086;2022-10-31T02:17:15;27.63;;;12.77;;
68825;SDS011;55841;53.392;10.086;2022-10-31T02:24:44;25.98;;;12.13;;
68825;SDS011;55841;53.392;10.086;2022-10-31T02:27:16;28.00;;;12.02;;
68825;SDS011;55841;53.392;10.086;2022-10-31T02:30:00;28.15;;;11.65;;
68825;SDS011;55841;53.392;10.086;2022-10-31T02:33:00;30.40;;;12.93;;
68825;SDS011;55841;53.392;10.086;2022-10-31T02:35:57;26.80;;;11.68;;
68825;SDS011;55841;53.392;10.086;2022-10-31T02:41:37;28.55;;;13.07;;
68825;SDS011;55841;53.392;10.086;2022-10-31T02:47:14;25.25;;;12.30;;
68825;SDS011;55841;53.392;10.086;2022-10-31T02:49:48;27.75;;;12.48;;
68825;SDS011;55841;53.392;10.086;2022-10-31T02:52:25;30.33;;;14.13;;
68825;SDS011;55841;53.392;10.086;2022-10-31T02:54:52;29.55;;;13.00;;
68825;SDS011;55841;53.392;10.086;2022-10-31T02:57:20;26.95;;;12.38;;
68825;SDS011;55841;53.392;10.086;2022-10-31T02:59:57;26.33;;;12.27;;
68825;SDS011;55841;53.392;10.086;2022-10-31T03:02:41;28.63;;;12.65;;
68825;SDS011;55841;53.392;10.086;2022-10-31T03:07:59;32.75;;;12.70;;
68825;SDS011;55841;53.392;10.086;2022-10-31T03:18:37;32.25;;;13.50;;
68825;SDS011;55841;53.392;10.086;2022-10-31T03:21:09;32.63;;;14.60;;
68825;SDS011;55841;53.392;10.086;2022-10-31T03:23:38;33.92;;;13.88;;
68825;SDS011;55841;53.392;10.086;2022-10-31T03:26:05;32.05;;;13.60;;
68825;SDS011;55841;53.392;10.086;2022-10-31T03:28:36;26.65;;;12.20;;
68825;SDS011;55841;53.392;10.086;2022-10-31T03:31:06;28.67;;;13.52;;
68825;SDS011;55841;53.392;10.086;2022-10-31T03:33:35;30.25;;;14.63;;
68825;SDS011;55841;53.392;10.086;2022-10-31T03:36:02;31.83;;;12.98;;
68825;SDS011;55841;53.392;10.086;2022-10-31T03:38:30;28.48;;;13.93;;
68825;SDS011;55841;53.392;10.086;2022-10-31T03:40:58;32.92;;;13.80;;
68825;SDS011;55841;53.392;10.086;2022-10-31T03:43:28;32.97;;;15.00;;
68825;SDS011;55841;53.392;10.086;2022-10-31T03:45:57;32.90;;;13.23;;
68825;SDS011;55841;53.392;10.086;2022-10-31T03:48:24;32.45;;;14.25;;
68825;SDS011;55841;53.392;10.086;2022-10-31T03:53:26;30.38;;;13.98;;
68825;SDS011;55841;53.392;10.086;2022-10-31T03:56:04;30.45;;;14.27;;
68825;SDS011;55841;53.392;10.086;2022-10-31T04:01:53;36.33;;;15.68;;
68825;SDS011;55841;53.392;10.086;2022-10-31T04:04:27;45.00;;;14.50;;
68825;SDS011;55841;53.392;10.086;2022-10-31T04:06:54;31.48;;;13.68;;
68825;SDS011;55841;53.392;10.086;2022-10-31T04:09:23;31.35;;;15.02;;
68825;SDS011;55841;53.392;10.086;2022-10-31T04:11:51;33.88;;;14.15;;
68825;SDS011;55841;53.392;10.086;2022-10-31T04:14:19;32.40;;;14.73;;
68825;SDS011;55841;53.392;10.086;2022-10-31T04:16:47;32.90;;;15.23;;
68825;SDS011;55841;53.392;10.086;2022-10-31T04:19:13;30.30;;;14.52;;
68825;SDS011;55841;53.392;10.086;2022-10-31T04:21:39;34.10;;;14.90;;
68825;SDS011;55841;53.392;10.086;2022-10-31T04:24:05;29.58;;;13.73;;
68825;SDS011;55841;53.392;10.086;2022-10-31T04:26:30;32.90;;;14.93;;
68825;SDS011;55841;53.392;10.086;2022-10-31T04:28:56;32.85;;;14.98;;
68825;SDS011;55841;53.392;10.086;2022-10-31T04:31:21;36.50;;;14.70;;
68825;SDS011;55841;53.392;10.086;2022-10-31T04:33:47;35.97;;;15.45;;
68825;SDS011;55841;53.392;10.086;2022-10-31T04:36:12;29.98;;;15.02;;
68825;SDS011;55841;53.392;10.086;2022-10-31T04:38:38;39.60;;;16.73;;
68825;SDS011;55841;53.392;10.086;2022-10-31T04:41:04;41.35;;;16.63;;
68825;SDS011;55841;53.392;10.086;2022-10-31T04:43:29;41.83;;;16.55;;
68825;SDS011;55841;53.392;10.086;2022-10-31T04:45:55;45.63;;;17.65;;
68825;SDS011;55841;53.392;10.086;2022-10-31T04:48:20;36.63;;;16.33;;
68825;SDS011;55841;53.392;10.086;2022-10-31T04:50:46;36.40;;;15.70;;
68825;SDS011;55841;53.392;10.086;2022-10-31T04:53:11;37.08;;;15.63;;
68825;SDS011;55841;53.392;10.086;2022-10-31T04:55:37;41.88;;;17.20;;
68825;SDS011;55841;53.392;10.086;2022-10-31T04:58:02;42.10;;;17.05;;
68825;SDS011;55841;53.392;10.086;2022-10-31T05:00:28;38.55;;;17.30;;
68825;SDS011;55841;53.392;10.086;2022-10-31T05:02:55;48.33;;;18.50;;
68825;SDS011;55841;53.392;10.086;2022-10-31T05:05:23;45.83;;;17.85;;
68825;SDS011;55841;53.392;10.086;2022-10-31T05:07:50;43.33;;;18.30;;
68825;SDS011;55841;53.392;10.086;2022-10-31T05:10:17;41.88;;;18.02;;
68825;SDS011;55841;53.392;10.086;2022-10-31T05:12:53;43.53;;;17.42;;
68825;SDS011;55841;53.392;10.086;2022-10-31T05:15:23;39.28;;;18.30;;
68825;SDS011;55841;53.392;10.086;2022-10-31T05:17:50;42.25;;;17.17;;
68825;SDS011;55841;53.392;10.086;2022-10-31T05:20:17;37.13;;;17.52;;
68825;SDS011;55841;53.392;10.086;2022-10-31T05:22:54;43.33;;;17.85;;
68825;SDS011;55841;53.392;10.086;2022-10-31T05:25:21;39.20;;;15.88;;
68825;SDS011;55841;53.392;10.086;2022-10-31T05:27:49;40.03;;;16.50;;
68825;SDS011;55841;53.392;10.086;2022-10-31T05:30:17;36.63;;;16.40;;
68825;SDS011;55841;53.392;10.086;2022-10-31T05:32:48;36.53;;;15.98;;
68825;SDS011;55841;53.392;10.086;2022-10-31T05:35:16;42.40;;;15.98;;
68825;SDS011;55841;53.392;10.086;2022-10-31T05:37:42;36.40;;;16.05;;
68825;SDS011;55841;53.392;10.086;2022-10-31T05:40:09;39.85;;;15.32;;
68825;SDS011;55841;53.392;10.086;2022-10-31T05:42:37;37.58;;;15.07;;
68825;SDS011;55841;53.392;10.086;2022-10-31T05:45:04;33.72;;;14.30;;
68825;SDS011;55841;53.392;10.086;2022-10-31T05:47:30;35.10;;;15.23;;
68825;SDS011;55841;53.392;10.086;2022-10-31T05:49:55;32.38;;;14.75;;
68825;SDS011;55841;53.392;10.086;2022-10-31T05:52:21;33.00;;;14.23;;
68825;SDS011;55841;53.392;10.086;2022-10-31T05:54:46;30.52;;;14.35;;
68825;SDS011;55841;53.392;10.086;2022-10-31T05:57:12;29.83;;;13.20;;
68825;SDS011;55841;53.392;10.086;2022-10-31T05:59:37;32.22;;;14.48;;
68825;SDS011;55841;53.392;10.086;2022-10-31T06:02:03;31.25;;;14.90;;
68825;SDS011;55841;53.392;10.086;2022-10-31T06:04:28;34.20;;;14.80;;
68825;SDS011;55841;53.392;10.086;2022-10-31T06:06:54;34.72;;;15.25;;
68825;SDS011;55841;53.392;10.086;2022-10-31T06:09:21;35.08;;;13.82;;
68825;SDS011;55841;53.392;10.086;2022-10-31T06:11:47;35.38;;;15.05;;
68825;SDS011;55841;53.392;10.086;2022-10-31T06:14:12;30.67;;;13.90;;
68825;SDS011;55841;53.392;10.086;2022-10-31T06:16:38;32.20;;;14.85;;
68825;SDS011;55841;53.392;10.086;2022-10-31T06:19:03;34.28;;;14.38;;
68825;SDS011;55841;53.392;10.086;2022-10-31T06:21:29;32.55;;;14.43;;
68825;SDS011;55841;53.392;10.086;2022-10-31T06:23:54;33.30;;;14.68;;
68825;SDS011;55841;53.392;10.086;2022-10-31T06:26:20;34.28;;;14.85;;
68825;SDS011;55841;53.392;10.086;2022-10-31T06:28:45;35.47;;;14.45;;
68825;SDS011;55841;53.392;10.086;2022-10-31T06:31:11;39.38;;;16.08;;
68825;SDS011;55841;53.392;10.086;2022-10-31T06:33:36;35.05;;;14.60;;
68825;SDS011;55841;53.392;10.086;2022-10-31T06:36:02;36.70;;;14.60;;
68825;SDS011;55841;53.392;10.086;2022-10-31T06:38:28;34.22;;;14.15;;
68825;SDS011;55841;53.392;10.086;2022-10-31T06:40:53;36.58;;;14.52;;
68825;SDS011;55841;53.392;10.086;2022-10-31T06:43:20;32.72;;;14.50;;
68825;SDS011;55841;53.392;10.086;2022-10-31T06:45:46;35.72;;;14.73;;
68825;SDS011;55841;53.392;10.086;2022-10-31T06:48:12;36.67;;;14.30;;
68825;SDS011;55841;53.392;10.086;2022-10-31T06:50:38;35.15;;;14.68;;
68825;SDS011;55841;53.392;10.086;2022-10-31T06:53:03;30.77;;;13.40;;
68825;SDS011;55841;53.392;10.086;2022-10-31T06:55:29;33.45;;;14.15;;
68825;SDS011;55841;53.392;10.086;2022-10-31T06:57:55;33.88;;;13.02;;
68825;SDS011;55841;53.392;10.086;2022-10-31T07:00:23;32.38;;;14.00;;
68825;SDS011;55841;53.392;10.086;2022-10-31T07:02:56;31.27;;;13.90;;
68825;SDS011;55841;53.392;10.086;2022-10-31T07:05:23;33.53;;;14.30;;
68825;SDS011;55841;53.392;10.086;2022-10-31T07:07:56;33.65;;;13.00;;
68825;SDS011;55841;53.392;10.086;2022-10-31T07:10:27;33.00;;;14.05;;
68825;SDS011;55841;53.392;10.086;2022-10-31T07:12:55;34.97;;;13.70;;
68825;SDS011;55841;53.392;10.086;2022-10-31T07:15:22;31.52;;;13.05;;
68825;SDS011;55841;53.392;10.086;2022-10-31T07:17:48;33.40;;;13.65;;
68825;SDS011;55841;53.392;10.086;2022-10-31T07:20:14;34.35;;;13.48;;
68825;SDS011;55841;53.392;10.086;2022-10-31T07:22:40;35.05;;;14.18;;
68825;SDS011;55841;53.392;10.086;2022-10-31T07:25:06;35.75;;;13.35;;
68825;SDS011;55841;53.392;10.086;2022-10-31T07:27:35;32.95;;;13.23;;
68825;SDS011;55841;53.392;10.086;2022-10-31T07:30:05;33.20;;;13.73;;
68825;SDS011;55841;53.392;10.086;2022-10-31T07:32:39;32.60;;;13.45;;
68825;SDS011;55841;53.392;10.086;2022-10-31T07:35:09;28.88;;;12.48;;
68825;SDS011;55841;53.392;10.086;2022-10-31T07:37:36;28.38;;;11.63;;
68825;SDS011;55841;53.392;10.086;2022-10-31T07:40:02;33.08;;;12.65;;
68825;SDS011;55841;53.392;10.086;2022-10-31T07:42:29;34.22;;;13.25;;
68825;SDS011;55841;53.392;10.086;2022-10-31T07:44:59;34.00;;;12.77;;
68825;SDS011;55841;53.392;10.086;2022-10-31T07:47:24;29.42;;;12.30;;
68825;SDS011;55841;53.392;10.086;2022-10-31T07:49:50;36.17;;;15.45;;
68825;SDS011;55841;53.392;10.086;2022-10-31T07:52:15;36.20;;;17.90;;
68825;SDS011;55841;53.392;10.086;2022-10-31T07:54:41;39.97;;;18.35;;
68825;SDS011;55841;53.392;10.086;2022-10-31T07:57:06;31.23;;;13.30;;
68825;SDS011;55841;53.392;10.086;2022-10-31T07:59:32;27.75;;;11.02;;
68825;SDS011;55841;53.392;10.086;2022-10-31T08:01:57;30.52;;;12.07;;
68825;SDS011;55841;53.392;10.086;2022-10-31T08:04:23;32.17;;;12.15;;
68825;SDS011;55841;53.392;10.086;2022-10-31T08:06:48;31.98;;;12.63;;
68825;SDS011;55841;53.392;10.086;2022-10-31T08:09:14;31.58;;;13.00;;
68825;SDS011;55841;53.392;10.086;2022-10-31T08:11:39;30.52;;;12.40;;
68825;SDS011;55841;53.392;10.086;2022-10-31T08:14:05;28.38;;;13.40;;
68825;SDS011;55841;53.392;10.086;2022-10-31T08:16:30;31.45;;;13.10;;
68825;SDS011;55841;53.392;10.086;2022-10-31T08:18:56;27.13;;;12.13;;
68825;SDS011;55841;53.392;10.086;2022-10-31T08:21:21;32.13;;;12.25;;
68825;SDS011;55841;53.392;10.086;2022-10-31T08:23:47;29.60;;;12.52;;
68825;SDS011;55841;53.392;10.086;2022-10-31T08:26:12;32.28;;;12.90;;
68825;SDS011;55841;53.392;10.086;2022-10-31T08:28:38;27.00;;;11.40;;
68825;SDS011;55841;53.392;10.086;2022-10-31T08:31:03;26.50;;;12.00;;
68825;SDS011;55841;53.392;10.086;2022-10-31T08:33:29;28.00;;;11.52;;
68825;SDS011;55841;53.392;10.086;2022-10-31T08:35:55;29.00;;;11.88;;
68825;SDS011;55841;53.392;10.086;2022-10-31T08:38:23;31.40;;;13.07;;
68825;SDS011;55841;53.392;10.086;2022-10-31T08:40:48;26.48;;;11.90;;
68825;SDS011;55841;53.392;10.086;2022-10-31T08:43:15;28.75;;;12.10;;
68825;SDS011;55841;53.392;10.086;2022-10-31T08:45:41;28.83;;;11.65;;
68825;SDS011;55841;53.392;10.086;2022-10-31T08:48:12;26.25;;;11.55;;
68825;SDS011;55841;53.392;10.086;2022-10-31T08:50:39;26.73;;;10.85;;
68825;SDS011;55841;53.392;10.086;2022-10-31T08:53:06;25.88;;;10.88;;
68825;SDS011;55841;53.392;10.086;2022-10-31T08:55:34;25.33;;;11.07;;
68825;SDS011;55841;53.392;10.086;2022-10-31T08:58:00;29.13;;;11.88;;
68825;SDS011;55841;53.392;10.086;2022-10-31T09:00:27;22.92;;;10.60;;
68825;SDS011;55841;53.392;10.086;2022-10-31T09:02:56;27.35;;;11.18;;
68825;SDS011;55841;53.392;10.086;2022-10-31T09:05:23;23.70;;;10.80;;
68825;SDS011;55841;53.392;10.086;2022-10-31T09:07:48;27.25;;;10.20;;
68825;SDS011;55841;53.392;10.086;2022-10-31T09:10:14;21.80;;;9.48;;
68825;SDS011;55841;53.392;10.086;2022-10-31T09:12:39;24.40;;;10.82;;
68825;SDS011;55841;53.392;10.086;2022-10-31T09:15:05;25.33;;;10.43;;
68825;SDS011;55841;53.392;10.086;2022-10-31T09:17:31;28.10;;;10.27;;
68825;SDS011;55841;53.392;10.086;2022-10-31T09:19:57;21.83;;;9.65;;
68825;SDS011;55841;53.392;10.086;2022-10-31T09:22:22;22.63;;;9.85;;
68825;SDS011;55841;53.392;10.086;2022-10-31T09:24:48;24.85;;;9.95;;
68825;SDS011;55841;53.392;10.086;2022-10-31T09:27:13;27.17;;;10.43;;
68825;SDS011;55841;53.392;10.086;2022-10-31T09:29:39;24.60;;;9.95;;
68825;SDS011;55841;53.392;10.086;2022-10-31T09:32:04;21.60;;;8.95;;
68825;SDS011;55841;53.392;10.086;2022-10-31T09:34:29;20.90;;;7.95;;
68825;SDS011;55841;53.392;10.086;2022-10-31T09:36:55;22.73;;;9.13;;
68825;SDS011;55841;53.392;10.086;2022-10-31T09:39:21;24.98;;;9.93;;
68825;SDS011;55841;53.392;10.086;2022-10-31T09:42:24;22.15;;;9.18;;
68825;SDS011;55841;53.392;10.086;2022-10-31T09:50:29;23.90;;;9.10;;
68825;SDS011;55841;53.392;10.086;2022-10-31T09:55:35;23.60;;;8.52;;
68825;SDS011;55841;53.392;10.086;2022-10-31T09:58:03;20.08;;;7.93;;
68825;SDS011;55841;53.392;10.086;2022-10-31T10:00:30;18.25;;;7.93;;
68825;SDS011;55841;53.392;10.086;2022-10-31T10:02:56;21.02;;;8.60;;
68825;SDS011;55841;53.392;10.086;2022-10-31T10:06:06;21.35;;;8.18;;
68825;SDS011;55841;53.392;10.086;2022-10-31T10:08:20;22.90;;;8.50;;
68825;SDS011;55841;53.392;10.086;2022-10-31T10:21:51;19.35;;;7.30;;
68825;SDS011;55841;53.392;10.086;2022-10-31T10:30:23;18.30;;;6.78;;
68825;SDS011;55841;53.392;10.086;2022-10-31T10:33:03;18.60;;;6.82;;
68825;SDS011;55841;53.392;10.086;2022-10-31T10:35:35;22.48;;;8.23;;
68825;SDS011;55841;53.392;10.086;2022-10-31T10:38:10;19.48;;;7.25;;
68825;SDS011;55841;53.392;10.086;2022-10-31T10:41:00;19.17;;;7.18;;
68825;SDS011;55841;53.392;10.086;2022-10-31T10:43:35;14.80;;;5.68;;
68825;SDS011;55841;53.392;10.086;2022-10-31T10:46:13;17.58;;;7.00;;
68825;SDS011;55841;53.392;10.086;2022-10-31T10:51:45;16.90;;;5.85;;
68825;SDS011;55841;53.392;10.086;2022-10-31T10:54:29;14.60;;;5.90;;
68825;SDS011;55841;53.392;10.086;2022-10-31T10:59:38;14.68;;;5.85;;
68825;SDS011;55841;53.392;10.086;2022-10-31T11:02:13;20.35;;;7.53;;
68825;SDS011;55841;53.392;10.086;2022-10-31T11:04:42;17.55;;;5.97;;
68825;SDS011;55841;53.392;10.086;2022-10-31T11:07:10;17.55;;;6.50;;
68825;SDS011;55841;53.392;10.086;2022-10-31T11:09:36;17.30;;;6.60;;
68825;SDS011;55841;53.392;10.086;2022-10-31T11:12:10;16.90;;;6.22;;
68825;SDS011;55841;53.392;10.086;2022-10-31T11:14:46;13.95;;;5.47;;
68825;SDS011;55841;53.392;10.086;2022-10-31T11:17:20;14.32;;;5.20;;
68825;SDS011;55841;53.392;10.086;2022-10-31T11:22:37;16.95;;;6.78;;
68825;SDS011;55841;53.392;10.086;2022-10-31T11:28:00;16.02;;;5.15;;
68825;SDS011;55841;53.392;10.086;2022-10-31T11:30:27;13.73;;;5.40;;
68825;SDS011;55841;53.392;10.086;2022-10-31T11:32:54;13.00;;;5.40;;
68825;SDS011;55841;53.392;10.086;2022-10-31T11:35:20;15.45;;;5.82;;
68825;SDS011;55841;53.392;10.086;2022-10-31T11:37:49;16.33;;;5.97;;
68825;SDS011;55841;53.392;10.086;2022-10-31T11:40:17;14.93;;;6.05;;
68825;SDS011;55841;53.392;10.086;2022-10-31T11:42:47;15.52;;;5.82;;
68825;SDS011;55841;53.392;10.086;2022-10-31T11:45:15;17.52;;;5.93;;
68825;SDS011;55841;53.392;10.086;2022-10-31T11:47:44;14.13;;;5.28;;
68825;SDS011;55841;53.392;10.086;2022-10-31T11:50:15;14.25;;;5.20;;
68825;SDS011;55841;53.392;10.086;2022-10-31T11:52:45;16.33;;;6.43;;
68825;SDS011;55841;53.392;10.086;2022-10-31T11:57:44;16.92;;;5.68;;
68825;SDS011;55841;53.392;10.086;2022-10-31T12:00:27;17.65;;;6.00;;
68825;SDS011;55841;53.392;10.086;2022-10-31T12:05:47;15.98;;;6.80;;
68825;SDS011;55841;53.392;10.086;2022-10-31T12:08:18;17.15;;;6.45;;
68825;SDS011;55841;53.392;10.086;2022-10-31T12:15:51;16.25;;;6.05;;
68825;SDS011;55841;53.392;10.086;2022-10-31T12:21:00;15.95;;;5.93;;
68825;SDS011;55841;53.392;10.086;2022-10-31T12:23:33;13.45;;;5.13;;
68825;SDS011;55841;53.392;10.086;2022-10-31T12:26:36;12.90;;;4.70;;
68825;SDS011;55841;53.392;10.086;2022-10-31T12:34:49;13.98;;;5.25;;
68825;SDS011;55841;53.392;10.086;2022-10-31T12:46:02;12.25;;;4.40;;
68825;SDS011;55841;53.392;10.086;2022-10-31T12:48:37;11.25;;;4.25;;
68825;SDS011;55841;53.392;10.086;2022-10-31T12:54:19;13.77;;;4.03;;
68825;SDS011;55841;53.392;10.086;2022-10-31T12:59:43;12.52;;;4.78;;
68825;SDS011;55841;53.392;10.086;2022-10-31T13:02:20;13.13;;;5.18;;
68825;SDS011;55841;53.392;10.086;2022-10-31T13:07:24;12.68;;;4.80;;
68825;SDS011;55841;53.392;10.086;2022-10-31T13:12:37;12.52;;;4.65;;
68825;SDS011;55841;53.392;10.086;2022-10-31T13:15:10;12.02;;;4.65;;
68825;SDS011;55841;53.392;10.086;2022-10-31T13:17:45;12.65;;;5.38;;
68825;SDS011;55841;53.392;10.086;2022-10-31T13:20:20;15.85;;;5.00;;
68825;SDS011;55841;53.392;10.086;2022-10-31T13:22:54;14.30;;;5.55;;
68825;SDS011;55841;53.392;10.086;2022-10-31T13:25:28;14.38;;;6.07;;
68825;SDS011;55841;53.392;10.086;2022-10-31T13:27:59;17.02;;;6.13;;
68825;SDS011;55841;53.392;10.086;2022-10-31T13:30:31;15.90;;;6.22;;
68825;SDS011;55841;53.392;10.086;2022-10-31T13:35:30;13.60;;;5.43;;
68825;SDS011;55841;53.392;10.086;2022-10-31T13:41:00;19.02;;;6.53;;
68825;SDS011;55841;53.392;10.086;2022-10-31T13:46:37;19.20;;;7.28;;
68825;SDS011;55841;53.392;10.086;2022-10-31T13:49:18;19.52;;;8.57;;
68825;SDS011;55841;53.392;10.086;2022-10-31T13:54:37;15.50;;;7.10;;
68825;SDS011;55841;53.392;10.086;2022-10-31T13:57:29;15.85;;;6.63;;
68825;SDS011;55841;53.392;10.086;2022-10-31T13:59:56;16.88;;;6.20;;
68825;SDS011;55841;53.392;10.086;2022-10-31T14:02:28;18.13;;;7.20;;
68825;SDS011;55841;53.392;10.086;2022-10-31T14:07:43;16.77;;;7.20;;
68825;SDS011;55841;53.392;10.086;2022-10-31T14:10:26;15.77;;;6.82;;
68825;SDS011;55841;53.392;10.086;2022-10-31T14:13:02;18.08;;;7.35;;
68825;SDS011;55841;53.392;10.086;2022-10-31T14:15:51;17.75;;;7.07;;
68825;SDS011;55841;53.392;10.086;2022-10-31T14:18:37;15.90;;;7.03;;
68825;SDS011;55841;53.392;10.086;2022-10-31T14:23:50;19.77;;;6.90;;
68825;SDS011;55841;53.392;10.086;2022-10-31T14:28:46;24.02;;;8.82;;
68825;SDS011;55841;53.392;10.086;2022-10-31T14:33:53;22.67;;;8.10;;
68825;SDS011;55841;53.392;10.086;2022-10-31T14:36:22;20.98;;;7.88;;
68825;SDS011;55841;53.392;10.086;2022-10-31T14:39:10;20.02;;;8.63;;
68825;SDS011;55841;53.392;10.086;2022-10-31T14:41:55;20.48;;;8.50;;
68825;SDS011;55841;53.392;10.086;2022-10-31T14:47:28;19.88;;;8.63;;
68825;SDS011;55841;53.392;10.086;2022-10-31T14:50:04;22.13;;;9.43;;
68825;SDS011;55841;53.392;10.086;2022-10-31T14:52:44;23.40;;;9.27;;
68825;SDS011;55841;53.392;10.086;2022-10-31T14:55:17;23.90;;;8.95;;
68825;SDS011;55841;53.392;10.086;2022-10-31T14:57:47;20.30;;;8.80;;
68825;SDS011;55841;53.392;10.086;2022-10-31T15:00:24;22.83;;;8.85;;
68825;SDS011;55841;53.392;10.086;2022-10-31T15:05:41;22.77;;;8.80;;
68825;SDS011;55841;53.392;10.086;2022-10-31T15:11:09;20.77;;;8.07;;
68825;SDS011;55841;53.392;10.086;2022-10-31T15:13:40;22.65;;;9.15;;
68825;SDS011;55841;53.392;10.086;2022-10-31T15:16:13;23.17;;;10.15;;
68825;SDS011;55841;53.392;10.086;2022-10-31T15:18:45;24.25;;;10.85;;
68825;SDS011;55841;53.392;10.086;2022-10-31T15:21:14;27.67;;;11.57;;
68825;SDS011;55841;53.392;10.086;2022-10-31T15:23:42;29.20;;;11.48;;
68825;SDS011;55841;53.392;10.086;2022-10-31T15:26:11;22.17;;;10.57;;
68825;SDS011;55841;53.392;10.086;2022-10-31T15:28:42;21.90;;;9.32;;
68825;SDS011;55841;53.392;10.086;2022-10-31T15:31:15;21.95;;;8.85;;
68825;SDS011;55841;53.392;10.086;2022-10-31T15:33:42;20.85;;;7.93;;
68825;SDS011;55841;53.392;10.086;2022-10-31T15:36:18;20.60;;;7.90;;
68825;SDS011;55841;53.392;10.086;2022-10-31T15:38:45;23.42;;;8.88;;
68825;SDS011;55841;53.392;10.086;2022-10-31T15:41:19;18.08;;;7.72;;
68825;SDS011;55841;53.392;10.086;2022-10-31T15:43:54;20.85;;;7.60;;
68825;SDS011;55841;53.392;10.086;2022-10-31T15:46:22;24.08;;;8.85;;
68825;SDS011;55841;53.392;10.086;2022-10-31T15:48:47;19.95;;;8.00;;
68825;SDS011;55841;53.392;10.086;2022-10-31T15:51:13;21.48;;;8.55;;
68825;SDS011;55841;53.392;10.086;2022-10-31T15:53:44;19.50;;;7.82;;
68825;SDS011;55841;53.392;10.086;2022-10-31T15:56:22;19.63;;;8.00;;
68825;SDS011;55841;53.392;10.086;2022-10-31T15:58:50;19.27;;;7.78;;
68825;SDS011;55841;53.392;10.086;2022-10-31T16:03:57;19.77;;;7.45;;
68825;SDS011;55841;53.392;10.086;2022-10-31T16:06:29;16.95;;;7.18;;
68825;SDS011;55841;53.392;10.086;2022-10-31T16:08:55;18.55;;;7.10;;
68825;SDS011;55841;53.392;10.086;2022-10-31T16:11:34;24.48;;;8.02;;
68825;SDS011;55841;53.392;10.086;2022-10-31T16:14:03;18.23;;;7.13;;
68825;SDS011;55841;53.392;10.086;2022-10-31T16:16:31;23.35;;;7.40;;
68825;SDS011;55841;53.392;10.086;2022-10-31T16:18:58;17.65;;;6.93;;
68825;SDS011;55841;53.392;10.086;2022-10-31T16:21:26;15.85;;;6.70;;
68825;SDS011;55841;53.392;10.086;2022-10-31T16:23:56;15.63;;;6.20;;
68825;SDS011;55841;53.392;10.086;2022-10-31T16:26:25;18.45;;;6.22;;
68825;SDS011;55841;53.392;10.086;2022-10-31T16:28:56;19.38;;;7.00;;
68825;SDS011;55841;53.392;10.086;2022-10-31T16:31:39;16.08;;;6.35;;
68825;SDS011;55841;53.392;10.086;2022-10-31T16:36:37;15.63;;;5.95;;
68825;SDS011;55841;53.392;10.086;2022-10-31T16:39:03;17.25;;;6.55;;
68825;SDS011;55841;53.392;10.086;2022-10-31T16:41:28;17.23;;;7.35;;
68825;SDS011;55841;53.392;10.086;2022-10-31T16:43:54;18.58;;;7.20;;
68825;SDS011;55841;53.392;10.086;2022-10-31T16:46:22;22.27;;;7.32;;
68825;SDS011;55841;53.392;10.086;2022-10-31T16:48:49;18.98;;;7.15;;
68825;SDS011;55841;53.392;10.086;2022-10-31T16:51:15;18.90;;;7.15;;
68825;SDS011;55841;53.392;10.086;2022-10-31T16:53:40;17.13;;;7.45;;
68825;SDS011;55841;53.392;10.086;2022-10-31T16:56:06;19.33;;;8.90;;